Terminal Aerodrome Forecast
Issued by NWS Raleigh/Durham, NC

Home | Current Version | Previous Version | Text Only | Print | Product List | Glossary On
Versions: 1 2 3 4 5 6 7 8 9 10 11 12 13 14 15 16 17 18 19 20 21 22 23 24 25 26 27 28 29 30 31 32 33 34 35 36 37 38 39 40 41 42 43 44 45 46 47 48 49 50
000
FTUS42 KRAH 051731 CCA
TAFGSO
TAF COR
KGSO 051731Z 0518/0618 03012G22KT 2SM -RA BR OVC006
      TEMPO 0518/0521 1 1/2SM -RA BR
     FM052100 02011KT 1SM -RAPL BR OVC002
     FM060100 02010KT 2SM -SNPL BR OVC005
     FM060300 35010KT 5SM BR OVC025
     FM061000 04008KT P6SM FEW030=

USA.gov is the U.S. government's official web portal to all federal, state and local government web resources and services.